createdAt,value
2023-02-14T00:01:57.306Z,-0.80
2023-02-14T00:06:07.460Z,-0.80
2023-02-14T00:10:13.011Z,-0.80
2023-02-14T00:14:38.668Z,-0.80
2023-02-14T00:19:10.288Z,-0.80
2023-02-14T00:23:13.728Z,-0.70
2023-02-14T00:27:19.628Z,-0.70
2023-02-14T00:31:24.104Z,-0.70
2023-02-14T00:36:17.506Z,-0.70
2023-02-14T00:40:21.280Z,-0.70
2023-02-14T00:44:53.258Z,-0.70
2023-02-14T00:48:57.111Z,-0.70
2023-02-14T00:53:26.514Z,-0.70
2023-02-14T00:57:30.551Z,-0.70
2023-02-14T01:01:36.306Z,-0.60
2023-02-14T01:05:58.303Z,-0.70
2023-02-14T01:10:01.683Z,-0.70
2023-02-14T01:14:21.826Z,-0.70
2023-02-14T01:18:28.969Z,-0.70
2023-02-14T01:22:37.732Z,-0.80
2023-02-14T01:26:41.317Z,-0.80
2023-02-14T01:31:13.205Z,-0.80
2023-02-14T01:35:18.475Z,-0.80
2023-02-14T01:39:21.992Z,-0.70
2023-02-14T01:43:26.010Z,-0.80
2023-02-14T01:47:46.075Z,-0.80
2023-02-14T01:51:54.402Z,-0.70
2023-02-14T01:56:30.417Z,-0.60
2023-02-14T02:01:31.821Z,-0.50
2023-02-14T02:05:39.875Z,-0.40
2023-02-14T02:09:54.705Z,-0.30
2023-02-14T02:14:00.119Z,-0.20
2023-02-14T02:18:12.892Z,-0.10
2023-02-14T02:22:42.333Z,-0.10
2023-02-14T02:27:20.002Z,-0.10
2023-02-14T02:31:50.952Z,0.10
2023-02-14T02:36:28.595Z,0.10
2023-02-14T02:40:49.569Z,0.20
2023-02-14T02:45:02.512Z,0.30
2023-02-14T02:49:12.334Z,0.30
2023-02-14T02:53:20.803Z,0.30
2023-02-14T02:57:40.454Z,0.40
2023-02-14T03:01:44.546Z,0.40
2023-02-14T03:05:49.723Z,0.50
2023-02-14T03:10:10.779Z,0.50
2023-02-14T03:14:23.032Z,0.50
2023-02-14T03:19:24.859Z,0.60
2023-02-14T03:23:33.017Z,0.60
2023-02-14T03:27:58.435Z,0.60
2023-02-14T03:32:17.610Z,0.70
2023-02-14T03:36:24.581Z,0.60
2023-02-14T03:40:33.558Z,0.60
2023-02-14T03:44:40.960Z,0.70
2023-02-14T03:48:48.527Z,0.80
2023-02-14T03:52:55.171Z,0.70
2023-02-14T03:57:09.453Z,0.70
2023-02-14T04:02:20.741Z,0.80
2023-02-14T04:06:25.766Z,0.80
2023-02-14T04:10:59.638Z,0.80
2023-02-14T04:15:03.463Z,0.80
2023-02-14T04:19:25.385Z,0.80
2023-02-14T04:23:30.529Z,0.90
2023-02-14T04:28:28.005Z,0.90
2023-02-14T04:32:31.499Z,0.80
2023-02-14T04:37:03.090Z,0.90
2023-02-14T04:41:08.018Z,0.90
2023-02-14T04:46:20.073Z,0.90
2023-02-14T04:50:26.046Z,0.90
2023-02-14T04:54:54.726Z,0.90
2023-02-14T04:58:59.861Z,0.90
2023-02-14T05:03:03.541Z,1.00
2023-02-14T05:07:17.279Z,1.00
2023-02-14T05:11:20.834Z,1.00
2023-02-14T05:15:45.515Z,1.10
2023-02-14T05:19:48.941Z,1.00
2023-02-14T05:25:11.287Z,1.00
2023-02-14T05:29:14.770Z,1.00
2023-02-14T05:33:46.747Z,0.90
2023-02-14T05:37:50.512Z,0.80
2023-02-14T05:42:56.039Z,0.80
2023-02-14T05:46:59.611Z,0.70
2023-02-14T05:57:04.600Z,0.50
2023-02-14T06:01:16.151Z,0.50
2023-02-14T06:05:20.392Z,0.50
2023-02-14T06:09:25.110Z,0.40
2023-02-14T06:13:30.163Z,0.40
2023-02-14T06:17:59.050Z,0.40
2023-02-14T06:22:02.494Z,0.30
2023-02-14T06:26:06.407Z,0.30
2023-02-14T06:30:13.145Z,0.30
2023-02-14T06:34:17.741Z,0.30
2023-02-14T06:38:21.248Z,0.20
2023-02-14T06:42:24.776Z,0.30
2023-02-14T06:46:29.869Z,0.20
2023-02-14T06:50:33.456Z,0.20
2023-02-14T06:54:37.951Z,0.20
2023-02-14T06:59:41.546Z,0.20
2023-02-14T07:03:47.546Z,0.20
2023-02-14T07:08:43.715Z,0.20
2023-02-14T07:12:47.275Z,0.20
2023-02-14T07:16:51.882Z,0.10
2023-02-14T07:20:57.133Z,0.10
2023-02-14T07:25:28.891Z,0.10
2023-02-14T07:29:32.673Z,0.20
2023-02-14T07:33:40.242Z,0.10
2023-02-14T07:37:45.131Z,0.00
2023-02-14T07:42:47.528Z,0.00
2023-02-14T07:46:51.129Z,0.00
2023-02-14T07:51:20.945Z,0.00
2023-02-14T07:55:27.230Z,0.00
2023-02-14T07:59:30.683Z,0.10
2023-02-14T08:03:34.205Z,0.20
2023-02-14T08:07:37.893Z,0.20
2023-02-14T08:12:08.610Z,0.20
2023-02-14T08:16:12.750Z,0.20
2023-02-14T08:20:17.397Z,0.20
2023-02-14T08:24:22.808Z,0.20
2023-02-14T08:28:44.035Z,0.30
2023-02-14T08:32:47.423Z,0.30
2023-02-14T08:36:52.190Z,0.30
2023-02-14T08:40:55.645Z,0.20
2023-02-14T08:45:26.676Z,0.30
2023-02-14T08:49:33.112Z,0.40
2023-02-14T08:53:37.056Z,0.40
2023-02-14T08:57:40.770Z,0.50
2023-02-14T09:01:45.663Z,0.60
2023-02-14T09:06:39.052Z,0.60
2023-02-14T09:10:42.589Z,0.70
2023-02-14T09:15:12.213Z,0.80
2023-02-14T09:19:17.081Z,0.80
2023-02-14T09:23:49.668Z,0.70
2023-02-14T09:27:53.035Z,0.90
2023-02-14T09:32:00.913Z,1.00
2023-02-14T09:36:24.176Z,1.00
2023-02-14T09:40:27.928Z,1.10
2023-02-14T09:45:21.096Z,1.00
2023-02-14T09:49:33.270Z,0.90
2023-02-14T09:53:46.262Z,0.90
2023-02-14T09:58:06.541Z,0.70
2023-02-14T10:02:31.805Z,0.70
2023-02-14T10:06:50.479Z,0.90
2023-02-14T10:11:05.003Z,0.90
2023-02-14T10:15:16.354Z,1.00
2023-02-14T10:19:25.189Z,1.00
2023-02-14T10:23:36.429Z,1.20
2023-02-14T10:27:50.182Z,1.40
2023-02-14T10:31:58.344Z,1.40
2023-02-14T10:36:05.931Z,1.40
2023-02-14T10:40:42.139Z,1.40
2023-02-14T10:44:55.342Z,1.60
2023-02-14T10:49:04.227Z,1.60
2023-02-14T10:53:27.855Z,1.80
2023-02-14T10:57:34.101Z,1.90
2023-02-14T11:01:39.322Z,2.00
2023-02-14T11:06:34.061Z,1.90
2023-02-14T11:10:37.441Z,2.00
2023-02-14T11:14:41.777Z,2.10
2023-02-14T11:18:46.708Z,2.20
2023-02-14T11:23:44.430Z,2.20
2023-02-14T11:27:50.278Z,2.10
2023-02-14T11:32:22.823Z,2.00
2023-02-14T11:36:28.868Z,2.10
2023-02-14T11:40:35.328Z,2.30
2023-02-14T11:44:52.560Z,2.40
2023-02-14T11:48:58.819Z,2.50
2023-02-14T11:53:24.664Z,2.40
2023-02-14T11:57:33.074Z,2.60
2023-02-14T12:01:40.021Z,2.50
2023-02-14T12:05:48.769Z,2.50
2023-02-14T12:10:23.764Z,2.50
2023-02-14T12:14:30.415Z,2.50
2023-02-14T12:18:54.826Z,2.60
2023-02-14T12:23:08.000Z,2.70
2023-02-14T12:27:21.522Z,2.70
2023-02-14T12:31:25.652Z,2.70
2023-02-14T12:35:45.335Z,2.60
2023-02-14T12:40:02.621Z,2.60
2023-02-14T12:49:08.572Z,2.30
2023-02-14T12:53:50.964Z,2.40
2023-02-14T12:57:59.213Z,2.30
2023-02-14T13:03:07.142Z,2.40
2023-02-14T13:07:37.804Z,2.50
2023-02-14T13:12:00.786Z,2.60
2023-02-14T13:16:15.598Z,2.50
2023-02-14T13:20:42.680Z,2.40
2023-02-14T13:24:49.704Z,2.50
2023-02-14T13:29:04.760Z,2.40
2023-02-14T13:33:11.120Z,2.50
2023-02-14T13:37:17.474Z,2.60
2023-02-14T13:41:23.875Z,2.60
2023-02-14T13:46:17.838Z,2.60
2023-02-14T13:50:22.918Z,2.50
2023-02-14T13:54:46.020Z,2.60
2023-02-14T13:58:54.344Z,2.60
2023-02-14T14:02:58.569Z,2.50
2023-02-14T14:07:32.995Z,2.40
2023-02-14T14:12:03.022Z,2.50
2023-02-14T14:16:33.540Z,2.40
2023-02-14T14:21:01.402Z,2.40
2023-02-14T14:25:09.346Z,2.40
2023-02-14T14:29:39.555Z,2.40
2023-02-14T14:33:44.670Z,2.50
2023-02-14T14:37:54.648Z,2.50
2023-02-14T14:42:10.790Z,2.60
2023-02-14T14:46:18.200Z,2.60
2023-02-14T14:50:47.814Z,2.60
2023-02-14T14:54:53.895Z,2.40
2023-02-14T14:59:18.472Z,2.40
2023-02-14T15:03:25.696Z,2.40
2023-02-14T15:07:36.716Z,2.30
2023-02-14T15:12:03.127Z,2.10
2023-02-14T15:16:07.161Z,1.80
2023-02-14T15:20:18.773Z,1.70
2023-02-14T15:24:23.578Z,1.70
2023-02-14T15:29:24.470Z,1.70
2023-02-14T15:33:28.534Z,1.70
2023-02-14T15:37:36.445Z,1.50
2023-02-14T15:41:54.597Z,1.40
2023-02-14T15:46:02.874Z,1.40
2023-02-14T15:50:26.130Z,1.40
2023-02-14T15:54:35.028Z,1.50
2023-02-14T15:58:41.571Z,1.40
2023-02-14T16:02:48.122Z,1.40
2023-02-14T16:07:30.027Z,1.30
2023-02-14T16:11:36.202Z,1.30
2023-02-14T16:15:57.662Z,1.30
2023-02-14T16:20:01.001Z,1.30
2023-02-14T16:24:25.318Z,1.20
2023-02-14T16:28:31.275Z,1.20
2023-02-14T16:32:38.287Z,1.20
2023-02-14T16:36:41.958Z,1.20
2023-02-14T16:40:47.777Z,1.20
2023-02-14T16:44:51.893Z,1.20
2023-02-14T16:48:57.927Z,1.20
2023-02-14T16:53:02.323Z,1.20
2023-02-14T16:57:28.007Z,1.30
2023-02-14T17:01:36.045Z,1.30
2023-02-14T17:05:42.313Z,1.30
2023-02-14T17:10:43.775Z,1.20
2023-02-14T17:14:51.178Z,1.20
2023-02-14T17:18:55.989Z,1.30
2023-02-14T17:23:00.827Z,1.30
2023-02-14T17:27:04.328Z,1.20
2023-02-14T17:31:08.165Z,1.20
2023-02-14T17:35:36.466Z,1.00
2023-02-14T17:39:41.354Z,0.90
2023-02-14T17:44:13.262Z,1.00
2023-02-14T17:48:16.696Z,0.90
2023-02-14T17:52:22.322Z,0.80
2023-02-14T17:56:28.062Z,0.90
2023-02-14T18:00:31.502Z,0.80
2023-02-14T18:04:55.135Z,0.80
2023-02-14T18:08:58.728Z,0.90
2023-02-14T18:13:11.878Z,0.90
2023-02-14T18:17:15.701Z,1.00
2023-02-14T18:21:25.576Z,1.00
2023-02-14T18:25:29.051Z,1.00
2023-02-14T18:29:34.839Z,1.10
2023-02-14T18:33:38.617Z,1.10
2023-02-14T18:37:59.711Z,1.20
2023-02-14T18:42:03.972Z,1.20
2023-02-14T18:46:13.301Z,1.20
2023-02-14T18:50:16.946Z,1.20
2023-02-14T18:54:22.563Z,1.10
2023-02-14T18:58:28.287Z,1.00
2023-02-14T19:02:33.858Z,1.10
2023-02-14T19:06:42.251Z,1.00
2023-02-14T19:10:46.348Z,0.90
2023-02-14T19:15:40.255Z,0.90
2023-02-14T19:19:45.143Z,1.00
2023-02-14T19:23:53.685Z,1.00
2023-02-14T19:27:57.153Z,1.00
2023-02-14T19:32:29.589Z,0.90
2023-02-14T19:36:36.469Z,0.90
2023-02-14T19:40:45.266Z,0.90
2023-02-14T19:44:48.767Z,0.90
2023-02-14T19:48:54.512Z,0.80
2023-02-14T19:52:59.383Z,0.80
2023-02-14T19:58:01.115Z,0.70
2023-02-14T20:02:15.084Z,0.60
2023-02-14T20:06:18.491Z,0.70
2023-02-14T20:10:25.495Z,0.70
2023-02-14T20:14:36.040Z,0.70
2023-02-14T20:18:49.622Z,0.70
2023-02-14T20:23:18.578Z,0.50
2023-02-14T20:27:25.664Z,0.30
2023-02-14T20:31:30.244Z,0.10
2023-02-14T20:35:38.163Z,0.20
2023-02-14T20:40:31.398Z,0.30
2023-02-14T20:44:36.818Z,0.40
2023-02-14T20:49:57.012Z,0.40
2023-02-14T20:54:00.366Z,0.50
2023-02-14T20:58:31.439Z,0.60
2023-02-14T21:03:50.769Z,0.50
2023-02-14T21:07:56.040Z,0.60
2023-02-14T21:12:25.980Z,0.60
2023-02-14T21:16:30.399Z,0.60
2023-02-14T21:20:34.742Z,0.60
2023-02-14T21:24:39.464Z,0.60
2023-02-14T21:40:20.646Z,0.50
2023-02-14T21:44:39.237Z,0.40
2023-02-14T21:49:49.618Z,0.30
2023-02-14T21:53:57.504Z,0.40
2023-02-14T21:58:02.322Z,0.30
2023-02-14T22:02:05.795Z,0.20
2023-02-14T22:06:35.862Z,0.20
2023-02-14T22:10:40.003Z,0.00
2023-02-14T22:14:45.810Z,0.00
2023-02-14T22:18:49.224Z,0.00
2023-02-14T22:22:52.584Z,0.10
2023-02-14T22:26:55.905Z,0.00
2023-02-14T22:31:06.721Z,0.00
2023-02-14T22:35:10.118Z,0.00
2023-02-14T22:40:16.452Z,0.00
2023-02-14T22:44:19.768Z,0.00
2023-02-14T22:48:26.696Z,0.00
2023-02-14T22:52:30.095Z,0.00
2023-02-14T22:56:39.965Z,0.00
2023-02-14T23:00:44.897Z,0.00
2023-02-14T23:04:51.067Z,0.00
2023-02-14T23:09:14.416Z,0.00
2023-02-14T23:22:50.060Z,0.10
2023-02-14T23:26:55.860Z,0.00
2023-02-14T23:31:03.606Z,-0.30
2023-02-14T23:35:07.910Z,-0.50
2023-02-14T23:40:11.079Z,-0.40
2023-02-14T23:44:16.842Z,-0.30
2023-02-14T23:48:25.994Z,-0.50
2023-02-14T23:52:29.359Z,-0.50
2023-02-14T23:56:34.463Z,-0.50
